createdAt,value
2018-06-05T00:00:50.087Z,20.10
2018-06-05T00:03:17.446Z,20.10
2018-06-05T00:05:45.489Z,19.90
2018-06-05T00:08:13.524Z,19.90
2018-06-05T00:10:40.883Z,19.90
2018-06-05T00:13:08.254Z,19.80
2018-06-05T00:15:36.270Z,19.80
2018-06-05T00:20:32.098Z,19.90
2018-06-05T00:23:00.119Z,19.90
2018-06-05T00:25:28.142Z,20.00
2018-06-05T00:27:56.364Z,20.00
2018-06-05T00:30:24.378Z,19.90
2018-06-05T00:32:52.406Z,19.90
2018-06-05T00:35:20.423Z,19.80
2018-06-05T00:37:48.462Z,19.80
2018-06-05T00:42:44.338Z,19.80
2018-06-05T00:45:12.358Z,19.80
2018-06-05T00:47:40.370Z,19.70
2018-06-05T00:50:08.395Z,19.70
2018-06-05T00:52:36.443Z,19.60
2018-06-05T00:55:04.502Z,19.60
2018-06-05T00:57:32.618Z,19.60
2018-06-05T01:00:00.634Z,19.60
2018-06-05T01:02:28.658Z,19.60
2018-06-05T01:04:56.677Z,19.60
2018-06-05T01:07:24.748Z,19.60
2018-06-05T01:09:52.771Z,19.50
2018-06-05T01:12:20.791Z,19.40
2018-06-05T01:14:48.831Z,19.50
2018-06-05T01:17:16.891Z,19.50
2018-06-05T01:19:44.910Z,19.60
2018-06-05T01:22:12.947Z,19.60
2018-06-05T01:24:40.982Z,19.50
2018-06-05T01:27:12.950Z,19.50
2018-06-05T01:29:40.992Z,19.40
2018-06-05T01:32:09.042Z,19.30
2018-06-05T01:34:37.077Z,19.30
2018-06-05T01:37:05.357Z,19.30
2018-06-05T01:39:33.390Z,19.30
2018-06-05T01:42:01.407Z,19.30
2018-06-05T01:44:29.430Z,19.30
2018-06-05T01:46:57.450Z,19.30
2018-06-05T01:49:29.726Z,19.30
2018-06-05T01:51:57.746Z,19.30
2018-06-05T01:54:25.766Z,19.10
2018-06-05T01:56:53.791Z,19.00
2018-06-05T01:59:21.157Z,18.90
2018-06-05T02:01:48.544Z,18.80
2018-06-05T02:04:15.907Z,18.90
2018-06-05T02:06:43.274Z,18.90
2018-06-05T02:09:10.646Z,18.90
2018-06-05T02:14:05.162Z,19.00
2018-06-05T02:16:33.192Z,19.00
2018-06-05T02:19:01.239Z,19.00
2018-06-05T02:21:29.258Z,19.00
2018-06-05T02:23:57.299Z,19.00
2018-06-05T02:26:25.322Z,19.00
2018-06-05T02:28:53.366Z,18.90
2018-06-05T02:33:48.541Z,18.80
2018-06-05T02:38:43.053Z,18.60
2018-06-05T02:41:10.434Z,18.60
2018-06-05T02:43:37.802Z,18.60
2018-06-05T02:46:05.170Z,18.60
2018-06-05T02:48:33.199Z,18.60
2018-06-05T02:51:00.558Z,18.70
2018-06-05T02:53:28.578Z,18.80
2018-06-05T02:55:56.614Z,18.80
2018-06-05T02:58:24.635Z,18.90
2018-06-05T03:00:52.674Z,18.90
2018-06-05T03:03:20.714Z,18.80
2018-06-05T03:05:48.984Z,18.90
2018-06-05T03:08:17.003Z,18.80
2018-06-05T03:10:45.021Z,18.80
2018-06-05T03:13:13.051Z,18.80
2018-06-05T03:15:41.075Z,18.80
2018-06-05T03:18:09.090Z,18.80
2018-06-05T03:20:37.135Z,18.80
2018-06-05T03:23:05.195Z,18.80
2018-06-05T03:25:33.224Z,18.80
2018-06-05T03:28:01.243Z,18.80
2018-06-05T03:30:29.261Z,18.90
2018-06-05T03:32:57.285Z,18.90
2018-06-05T03:35:25.358Z,18.80
2018-06-05T03:37:52.732Z,18.70
2018-06-05T03:40:20.754Z,18.50
2018-06-05T03:42:48.790Z,18.40
2018-06-05T03:45:16.814Z,18.40
2018-06-05T03:47:44.848Z,18.40
2018-06-05T03:50:12.874Z,18.40
2018-06-05T03:52:40.898Z,18.40
2018-06-05T03:55:08.266Z,18.30
2018-06-05T03:57:35.635Z,18.20
2018-06-05T04:00:03.008Z,18.30
2018-06-05T04:02:30.381Z,18.40
2018-06-05T04:04:58.410Z,18.40
2018-06-05T04:07:26.431Z,18.30
2018-06-05T04:09:54.479Z,18.30
2018-06-05T04:12:21.837Z,18.30
2018-06-05T04:14:49.866Z,18.40
2018-06-05T04:17:17.238Z,18.60
2018-06-05T04:19:45.265Z,18.70
2018-06-05T04:22:13.287Z,18.70
2018-06-05T04:24:40.641Z,18.60
2018-06-05T04:27:08.708Z,18.40
2018-06-05T04:32:04.511Z,18.50
2018-06-05T04:34:32.533Z,18.60
2018-06-05T04:37:01.366Z,18.70
2018-06-05T04:39:29.399Z,18.60
2018-06-05T04:41:57.436Z,18.60
2018-06-05T04:44:25.471Z,18.60
2018-06-05T04:46:53.494Z,18.80
2018-06-05T04:49:21.519Z,18.90
2018-06-05T04:51:49.547Z,18.90
2018-06-05T04:54:17.587Z,18.90
2018-06-05T04:56:45.617Z,19.00
2018-06-05T04:59:13.650Z,19.00
2018-06-05T05:01:41.673Z,19.10
2018-06-05T05:04:09.727Z,19.00
2018-06-05T05:09:06.843Z,19.10
2018-06-05T05:11:35.297Z,19.20
2018-06-05T05:14:03.324Z,19.20
2018-06-05T05:16:31.359Z,19.30
2018-06-05T05:18:59.394Z,19.30
2018-06-05T05:23:53.923Z,19.40
2018-06-05T05:26:21.970Z,19.40
2018-06-05T05:28:49.998Z,19.50
2018-06-05T05:31:18.031Z,19.50
2018-06-05T05:33:46.050Z,19.50
2018-06-05T05:36:14.089Z,19.50
2018-06-05T05:38:42.099Z,19.50
2018-06-05T05:41:10.143Z,19.60
2018-06-05T05:43:38.170Z,19.60
2018-06-05T05:46:06.203Z,19.60
2018-06-05T05:48:34.333Z,19.70
2018-06-05T05:51:02.371Z,19.80
2018-06-05T05:53:30.403Z,19.90
2018-06-05T05:55:58.498Z,19.90
2018-06-05T05:58:26.551Z,19.80
2018-06-05T06:00:54.578Z,19.90
2018-06-05T06:03:22.618Z,20.00
2018-06-05T06:05:50.663Z,20.00
2018-06-05T06:08:18.021Z,20.10
2018-06-05T06:10:45.439Z,20.20
2018-06-05T06:13:13.459Z,20.20
2018-06-05T06:15:41.502Z,20.30
2018-06-05T06:18:09.532Z,20.30
2018-06-05T06:20:37.560Z,20.40
2018-06-05T06:23:05.711Z,20.40
2018-06-05T06:25:33.118Z,20.40
2018-06-05T06:32:56.155Z,20.60
2018-06-05T06:35:23.526Z,20.70
2018-06-05T06:37:51.559Z,20.60
2018-06-05T06:40:19.600Z,20.70
2018-06-05T06:42:47.623Z,20.70
2018-06-05T06:45:15.662Z,20.80
2018-06-05T06:47:43.678Z,20.90
2018-06-05T06:52:39.506Z,21.10
2018-06-05T06:55:07.555Z,21.20
2018-06-05T06:57:35.583Z,21.30
2018-06-05T07:00:03.602Z,21.30
2018-06-05T07:02:31.626Z,21.30
2018-06-05T07:04:59.651Z,21.30
2018-06-05T07:07:27.663Z,21.30
2018-06-05T07:09:55.686Z,21.40
2018-06-05T07:12:23.747Z,21.50
2018-06-05T07:17:19.591Z,21.70
2018-06-05T07:19:47.618Z,21.70
2018-06-05T07:22:15.634Z,21.70
2018-06-05T07:24:43.653Z,21.80
2018-06-05T07:27:11.675Z,21.80
2018-06-05T07:29:39.687Z,21.90
2018-06-05T07:32:07.705Z,22.00
2018-06-05T07:34:35.736Z,22.00
2018-06-05T07:37:03.796Z,22.10
2018-06-05T07:39:31.818Z,22.10
2018-06-05T07:41:59.864Z,22.20
2018-06-05T07:44:27.288Z,22.30
2018-06-05T07:49:23.031Z,22.30
2018-06-05T07:51:51.055Z,22.40
2018-06-05T07:54:19.130Z,22.50
2018-06-05T07:56:47.189Z,22.50
2018-06-05T07:59:15.212Z,22.70
2018-06-05T08:01:43.235Z,22.70
2018-06-05T08:04:11.259Z,22.80
2018-06-05T08:09:08.685Z,22.90
2018-06-05T08:11:37.218Z,22.90
2018-06-05T08:14:05.259Z,23.10
2018-06-05T08:16:33.310Z,23.20
2018-06-05T08:19:00.671Z,23.30
2018-06-05T08:21:28.049Z,23.40
2018-06-05T08:23:56.083Z,23.50
2018-06-05T08:26:26.234Z,23.60
2018-06-05T08:28:53.570Z,23.70
2018-06-05T08:31:21.610Z,23.80
2018-06-05T08:33:49.648Z,23.70
2018-06-05T08:36:17.659Z,23.60
2018-06-05T08:38:45.693Z,23.60
2018-06-05T08:43:40.234Z,23.70
2018-06-05T08:46:08.283Z,23.80
2018-06-05T08:48:35.662Z,23.90
2018-06-05T08:51:03.034Z,24.10
2018-06-05T08:53:30.414Z,24.20
2018-06-05T08:55:58.438Z,24.20
2018-06-05T08:58:26.459Z,24.30
2018-06-05T09:00:53.817Z,24.40
2018-06-05T09:03:21.186Z,24.40
2018-06-05T09:05:49.222Z,24.50
2018-06-05T09:08:16.586Z,24.70
2018-06-05T09:10:44.679Z,24.60
2018-06-05T09:13:12.671Z,24.50
2018-06-05T09:15:40.698Z,24.60
2018-06-05T09:18:08.071Z,24.60
2018-06-05T09:20:35.454Z,24.60
2018-06-05T09:23:03.466Z,24.60
2018-06-05T09:25:31.502Z,24.70
2018-06-05T09:27:58.869Z,24.60
2018-06-05T09:30:26.238Z,24.90
2018-06-05T09:32:53.593Z,24.90
2018-06-05T09:35:20.979Z,24.90
2018-06-05T09:37:49.061Z,24.80
2018-06-05T09:40:17.127Z,24.90
2018-06-05T09:42:45.155Z,25.20
2018-06-05T09:45:14.211Z,25.40
2018-06-05T09:47:42.226Z,25.60
2018-06-05T09:50:10.262Z,25.80
2018-06-05T09:52:38.278Z,25.70
2018-06-05T09:55:06.332Z,25.90
2018-06-05T09:57:34.384Z,26.00
2018-06-05T10:00:02.387Z,26.10
2018-06-05T10:02:30.410Z,26.10
2018-06-05T10:04:58.435Z,26.20
2018-06-05T10:07:26.454Z,26.00
2018-06-05T10:09:54.495Z,26.00
2018-06-05T10:12:22.533Z,26.10
2018-06-05T10:14:50.567Z,26.20
2018-06-05T10:17:18.587Z,26.40
2018-06-05T10:19:46.624Z,26.50
2018-06-05T10:22:14.651Z,26.50
2018-06-05T10:24:42.016Z,26.50
2018-06-05T10:27:10.043Z,26.60
2018-06-05T10:29:38.061Z,26.60
2018-06-05T10:32:06.126Z,26.60
2018-06-05T10:37:01.963Z,26.90
2018-06-05T10:39:29.990Z,26.90
2018-06-05T10:41:57.372Z,27.10
2018-06-05T10:44:25.398Z,27.30
2018-06-05T10:46:53.415Z,27.40
2018-06-05T10:49:21.459Z,27.40
2018-06-05T10:51:49.479Z,27.60
2018-06-05T10:54:17.531Z,27.80
2018-06-05T10:56:45.567Z,28.00
2018-06-05T10:59:13.590Z,28.10
2018-06-05T11:01:41.623Z,28.10
2018-06-05T11:04:09.659Z,28.30
2018-06-05T11:06:37.689Z,28.70
2018-06-05T11:11:34.762Z,28.90
2018-06-05T11:14:02.807Z,28.90
2018-06-05T11:16:30.843Z,28.80
2018-06-05T11:18:58.870Z,28.50
2018-06-05T11:21:26.923Z,27.90
2018-06-05T11:23:54.942Z,28.00
2018-06-05T11:26:22.962Z,28.30
2018-06-05T11:28:50.317Z,29.20
2018-06-05T11:31:17.683Z,29.20
2018-06-05T11:33:45.695Z,29.00
2018-06-05T11:38:40.888Z,29.00
2018-06-05T11:43:36.075Z,29.70
2018-06-05T11:48:31.251Z,30.30
2018-06-05T11:53:26.466Z,31.10
2018-06-05T11:55:54.515Z,30.90
2018-06-05T11:58:22.543Z,30.00
2018-06-05T12:00:50.592Z,29.50
2018-06-05T12:03:17.937Z,29.00
2018-06-05T12:05:45.963Z,28.70
2018-06-05T12:08:13.334Z,28.40
2018-06-05T12:10:41.363Z,28.60
2018-06-05T12:13:09.398Z,28.20
2018-06-05T12:15:37.419Z,28.00
2018-06-05T12:20:32.593Z,27.60
2018-06-05T12:23:00.622Z,27.60
2018-06-05T12:25:28.678Z,27.70
2018-06-05T12:27:56.743Z,28.30
2018-06-05T12:30:24.109Z,29.00
2018-06-05T12:32:51.477Z,29.60
2018-06-05T12:35:18.867Z,29.90
2018-06-05T12:37:46.898Z,30.30
2018-06-05T12:40:14.937Z,30.40
2018-06-05T12:42:42.949Z,30.60
2018-06-05T12:45:10.976Z,30.70
2018-06-05T12:47:39.003Z,31.20
2018-06-05T12:50:06.398Z,31.30
2018-06-05T12:52:33.760Z,31.80
2018-06-05T12:57:28.959Z,32.00
2018-06-05T12:59:56.992Z,32.50
2018-06-05T13:02:25.015Z,32.70
2018-06-05T13:04:53.034Z,32.70
2018-06-05T13:07:21.073Z,32.90
2018-06-05T13:12:16.903Z,30.40
2018-06-05T13:14:44.955Z,29.90
2018-06-05T13:17:12.995Z,29.70
2018-06-05T13:19:41.038Z,29.50
2018-06-05T13:22:09.070Z,29.10
2018-06-05T13:24:37.094Z,28.90
2018-06-05T13:27:06.071Z,28.80
2018-06-05T13:29:34.306Z,28.50
2018-06-05T13:32:02.547Z,28.50
2018-06-05T13:34:30.572Z,29.00
2018-06-05T13:36:58.606Z,29.00
2018-06-05T13:39:26.622Z,29.50
2018-06-05T13:41:54.656Z,29.80
2018-06-05T13:44:22.027Z,29.60
2018-06-05T13:46:50.051Z,29.20
2018-06-05T13:49:18.071Z,28.90
2018-06-05T13:51:45.434Z,28.70
2018-06-05T13:54:12.802Z,28.40
2018-06-05T13:59:07.346Z,29.80
2018-06-05T14:01:35.823Z,30.30
2018-06-05T14:04:03.830Z,30.80
2018-06-05T14:06:31.873Z,30.90
2018-06-05T14:08:59.907Z,31.30
2018-06-05T14:11:27.946Z,31.00
2018-06-05T14:13:55.334Z,31.10
2018-06-05T14:16:23.470Z,31.40
2018-06-05T14:18:51.510Z,30.60
2018-06-05T14:21:19.539Z,30.30
2018-06-05T14:23:47.574Z,30.00
2018-06-05T14:26:15.607Z,29.90
2018-06-05T14:28:43.631Z,30.30
2018-06-05T14:31:11.656Z,30.70
2018-06-05T14:33:39.675Z,30.60
2018-06-05T14:36:07.712Z,30.40
2018-06-05T14:38:35.751Z,30.40
2018-06-05T14:41:03.138Z,30.30
2018-06-05T14:43:31.162Z,30.10
2018-06-05T14:45:59.186Z,29.90
2018-06-05T14:48:26.550Z,29.50
2018-06-05T14:53:22.883Z,29.10
2018-06-05T14:55:50.907Z,28.90
2018-06-05T14:58:18.943Z,29.00
2018-06-05T15:00:46.962Z,29.00
2018-06-05T15:03:14.990Z,28.90
2018-06-05T15:08:10.836Z,28.50
2018-06-05T15:10:38.864Z,28.20
2018-06-05T15:13:06.931Z,28.10
2018-06-05T15:15:34.910Z,28.00
2018-06-05T15:18:02.932Z,27.90
2018-06-05T15:20:30.955Z,27.80
2018-06-05T15:22:58.980Z,27.70
2018-06-05T15:25:27.037Z,27.60
2018-06-05T15:27:55.059Z,27.50
2018-06-05T15:30:23.079Z,27.50
2018-06-05T15:32:51.100Z,27.50
2018-06-05T15:35:19.120Z,27.30
2018-06-05T15:40:14.991Z,27.20
2018-06-05T15:42:43.006Z,27.20
2018-06-05T15:45:11.026Z,27.10
2018-06-05T15:47:39.067Z,27.10
2018-06-05T15:50:07.092Z,27.10
2018-06-05T15:52:35.131Z,27.00
2018-06-05T15:55:03.163Z,27.00
2018-06-05T15:57:31.205Z,26.90
2018-06-05T15:59:59.244Z,26.90
2018-06-05T16:02:27.283Z,26.90
2018-06-05T16:04:55.311Z,26.90
2018-06-05T16:07:23.337Z,26.80
2018-06-05T16:09:51.362Z,26.90
2018-06-05T16:12:19.395Z,26.80
2018-06-05T16:14:47.431Z,26.80
2018-06-05T16:17:15.450Z,26.80
2018-06-05T16:22:11.294Z,26.70
2018-06-05T16:24:39.320Z,26.60
2018-06-05T16:27:07.342Z,26.60
2018-06-05T16:29:35.402Z,26.60
2018-06-05T16:32:03.423Z,26.60
2018-06-05T16:34:31.443Z,26.60
2018-06-05T16:36:59.459Z,26.50
2018-06-05T16:39:26.822Z,26.50
2018-06-05T16:44:22.691Z,26.40
2018-06-05T16:46:50.710Z,26.40
2018-06-05T16:49:18.075Z,26.40
2018-06-05T16:51:46.108Z,26.30
2018-06-05T16:54:14.130Z,26.30
2018-06-05T16:56:42.167Z,26.30
2018-06-05T16:59:09.539Z,26.30
2018-06-05T17:04:04.706Z,26.30
2018-06-05T17:06:33.551Z,26.20
2018-06-05T17:09:01.571Z,26.20
2018-06-05T17:11:28.946Z,26.30
2018-06-05T17:13:56.302Z,26.30
2018-06-05T17:16:24.348Z,26.40
2018-06-05T17:18:52.350Z,26.40
2018-06-05T17:21:20.389Z,26.50
2018-06-05T17:23:48.399Z,26.50
2018-06-05T17:26:16.447Z,26.50
2018-06-05T17:28:44.466Z,26.50
2018-06-05T17:31:12.491Z,26.50
2018-06-05T17:33:40.498Z,26.60
2018-06-05T17:36:08.527Z,26.60
2018-06-05T17:41:04.380Z,27.10
2018-06-05T17:43:31.750Z,27.30
2018-06-05T17:45:59.822Z,27.40
2018-06-05T17:48:27.138Z,27.60
2018-06-05T17:50:55.158Z,27.90
2018-06-05T17:53:23.178Z,27.90
2018-06-05T17:55:51.208Z,27.80
2018-06-05T17:58:18.574Z,27.70
2018-06-05T18:00:45.934Z,27.60
2018-06-05T18:03:13.306Z,27.50
2018-06-05T18:05:41.338Z,27.50
2018-06-05T18:08:09.362Z,27.40
2018-06-05T18:10:36.721Z,27.30
2018-06-05T18:13:04.763Z,27.20
2018-06-05T18:17:59.954Z,26.70
2018-06-05T18:22:55.127Z,26.40
2018-06-05T18:25:23.154Z,26.30
2018-06-05T18:27:50.521Z,26.30
2018-06-05T18:30:17.885Z,26.10
2018-06-05T18:32:45.257Z,26.00
2018-06-05T18:35:12.623Z,25.90
2018-06-05T18:37:39.998Z,25.80
2018-06-05T18:42:34.550Z,25.70
2018-06-05T18:45:01.931Z,25.60
2018-06-05T18:47:29.330Z,25.50
2018-06-05T18:49:56.677Z,25.40
2018-06-05T18:52:24.714Z,25.40
2018-06-05T18:54:52.112Z,25.30
2018-06-05T18:59:47.314Z,25.20
2018-06-05T19:02:15.345Z,25.10
2018-06-05T19:04:43.370Z,25.00
2018-06-05T19:07:11.417Z,24.90
2018-06-05T19:09:39.414Z,24.80
2018-06-05T19:12:07.469Z,24.80
2018-06-05T19:14:35.543Z,24.70
2018-06-05T19:17:03.554Z,24.60
2018-06-05T19:19:31.632Z,24.50
2018-06-05T19:24:27.462Z,24.30
2018-06-05T19:26:55.482Z,24.20
2018-06-05T19:29:23.512Z,24.10
2018-06-05T19:31:51.543Z,24.10
2018-06-05T19:34:18.898Z,24.00
2018-06-05T19:36:46.926Z,24.00
2018-06-05T19:39:14.955Z,23.90
2018-06-05T19:44:10.868Z,23.70
2018-06-05T19:46:38.264Z,23.70
2018-06-05T19:49:05.594Z,23.60
2018-06-05T19:51:33.618Z,23.60
2018-06-05T19:54:01.643Z,23.60
2018-06-05T19:58:56.833Z,23.50
2018-06-05T20:01:24.850Z,23.40
2018-06-05T20:03:52.217Z,23.40
2018-06-05T20:06:19.585Z,23.30
2018-06-05T20:08:46.958Z,23.30
2018-06-05T20:11:14.322Z,23.30
2018-06-05T20:13:41.698Z,23.30
2018-06-05T20:16:09.054Z,23.30
2018-06-05T20:18:37.082Z,23.20
2018-06-05T20:21:05.087Z,23.20
2018-06-05T20:23:33.104Z,23.20
2018-06-05T20:26:01.161Z,23.10
2018-06-05T20:28:29.188Z,23.10
2018-06-05T20:30:57.192Z,23.00
2018-06-05T20:33:25.223Z,22.90
2018-06-05T20:35:52.574Z,22.90
2018-06-05T20:38:19.950Z,22.80
2018-06-05T20:40:47.359Z,22.80
2018-06-05T20:43:15.491Z,22.80
2018-06-05T20:45:43.558Z,22.80
2018-06-05T20:48:11.581Z,22.70
2018-06-05T20:50:39.678Z,22.60
2018-06-05T20:53:07.698Z,22.60
2018-06-05T20:55:35.886Z,22.60
2018-06-05T20:58:03.919Z,22.60
2018-06-05T21:00:31.932Z,22.60
2018-06-05T21:03:00.073Z,22.50
2018-06-05T21:05:28.102Z,22.40
2018-06-05T21:07:56.114Z,22.40
2018-06-05T21:10:24.162Z,22.30
2018-06-05T21:12:52.232Z,22.20
2018-06-05T21:15:20.251Z,22.20
2018-06-05T21:20:16.083Z,22.10
2018-06-05T21:22:44.144Z,22.00
2018-06-05T21:25:12.178Z,22.10
2018-06-05T21:27:39.554Z,22.00
2018-06-05T21:30:07.683Z,22.00
2018-06-05T21:32:35.714Z,21.90
2018-06-05T21:35:03.142Z,21.90
2018-06-05T21:37:30.494Z,21.80
2018-06-05T21:42:26.377Z,21.70
2018-06-05T21:44:54.417Z,21.60
2018-06-05T21:47:22.456Z,21.60
2018-06-05T21:49:49.832Z,21.50
2018-06-05T21:52:17.198Z,21.50
2018-06-05T21:54:44.568Z,21.40
2018-06-05T21:57:11.938Z,21.40
2018-06-05T21:59:39.326Z,21.30
2018-06-05T22:02:07.387Z,21.30
2018-06-05T22:04:35.436Z,21.20
2018-06-05T22:07:03.474Z,21.20
2018-06-05T22:09:31.506Z,21.10
2018-06-05T22:11:59.537Z,21.10
2018-06-05T22:14:27.562Z,21.10
2018-06-05T22:16:55.580Z,21.00
2018-06-05T22:19:23.617Z,21.00
2018-06-05T22:21:51.642Z,21.00
2018-06-05T22:24:19.674Z,20.90
2018-06-05T22:26:47.731Z,20.80
2018-06-05T22:31:43.590Z,20.70
2018-06-05T22:34:11.631Z,20.70
2018-06-05T22:36:39.675Z,20.70
2018-06-05T22:39:07.726Z,20.60
2018-06-05T22:41:35.870Z,20.60
2018-06-05T22:44:03.902Z,20.60
2018-06-05T22:48:59.762Z,20.60
2018-06-05T22:51:27.835Z,20.50
2018-06-05T22:53:55.849Z,20.50
2018-06-05T22:56:23.915Z,20.50
2018-06-05T22:58:52.041Z,20.40
2018-06-05T23:03:48.151Z,20.40
2018-06-05T23:06:16.183Z,20.30
2018-06-05T23:08:44.247Z,20.30
2018-06-05T23:11:12.288Z,20.30
2018-06-05T23:13:40.323Z,20.30
2018-06-05T23:16:08.364Z,20.30
2018-06-05T23:18:36.415Z,20.30
2018-06-05T23:21:04.474Z,20.20
2018-06-05T23:23:32.506Z,20.20
2018-06-05T23:26:00.670Z,20.20
2018-06-05T23:28:28.720Z,20.20
2018-06-05T23:30:56.090Z,20.20
2018-06-05T23:33:24.119Z,20.20
2018-06-05T23:35:51.503Z,20.20
2018-06-05T23:38:19.530Z,20.10
2018-06-05T23:40:46.918Z,20.10
2018-06-05T23:43:14.279Z,20.10
2018-06-05T23:48:08.821Z,20.00
2018-06-05T23:50:36.205Z,20.00
2018-06-05T23:55:30.733Z,19.90
2018-06-05T23:57:58.114Z,19.90
